Time;durP1;ratioP1;P1;durP2;ratioP2;P2;SDS_P1;SDS_P2;PMS_P1;PMS_P2;Temp;Humidity;BMP_temperature;BMP_pressure;BME280_temperature;BME280_humidity;BME280_pressure;Samples;Min_cycle;Max_cycle;Signal;HPM_P1;HPM_P2
2022/12/24 00:00:02;;;;;;;17.10;8.98;;;;;;;5.19;93.36;97466.95;1631494;87;25502;-67
2022/12/24 00:02:28;;;;;;;27.45;13.70;;;;;;;5.18;93.58;97459.34;1610163;87;27293;-67
2022/12/24 00:04:54;;;;;;;21.60;11.18;;;;;;;5.17;93.48;97449.59;1609951;87;25709;-68
2022/12/24 00:07:20;;;;;;;17.57;9.90;;;;;;;5.18;93.65;97456.63;1654161;86;25639;-68
2022/12/24 00:09:46;;;;;;;17.30;9.20;;;;;;;5.18;93.65;97440.33;1632717;87;27611;-68
2022/12/24 00:12:12;;;;;;;21.30;9.73;;;;;;;5.19;93.71;97440.59;1632626;87;25739;-68
2022/12/24 00:14:39;;;;;;;18.17;9.43;;;;;;;5.21;93.82;97440.29;1632040;87;27717;-68
2022/12/24 00:17:05;;;;;;;14.30;7.37;;;;;;;5.23;94.03;97429.90;1608455;85;25498;-68
2022/12/24 00:19:31;;;;;;;16.35;8.40;;;;;;;5.22;94.12;97413.36;1644208;85;25777;-69
2022/12/24 00:21:57;;;;;;;18.55;9.18;;;;;;;5.22;93.79;97418.80;1666622;85;26478;-68
2022/12/24 00:24:23;;;;;;;11.60;6.60;;;;;;;5.22;94.04;97418.80;1689693;84;25689;-69
2022/12/24 00:26:49;;;;;;;11.57;6.65;;;;;;;5.22;94.31;97420.97;1666690;85;27591;-69
2022/12/24 00:29:16;;;;;;;13.72;7.15;;;;;;;5.23;94.27;97413.60;1666669;85;25747;-69
2022/12/24 00:31:42;;;;;;;12.98;6.80;;;;;;;5.25;94.23;97410.84;1666488;84;25822;-69
2022/12/24 00:34:08;;;;;;;12.75;6.80;;;;;;;5.26;94.34;97422.49;1673183;85;25748;-70
2022/12/24 00:36:34;;;;;;;11.88;6.45;;;;;;;5.26;94.61;97419.77;1631618;87;25643;-70
2022/12/24 00:39:00;;;;;;;13.50;7.87;;;;;;;5.27;94.49;97414.03;1631778;87;28450;-69
2022/12/24 00:41:29;;;;;;;14.25;8.38;;;;;;;5.25;94.25;97409.48;1630291;86;27294;-69
2022/12/24 00:44:04;;;;;;;16.73;8.68;;;;;;;5.25;94.31;97408.67;1631593;87;25456;-69
2022/12/24 00:46:33;;;;;;;16.73;9.00;;;;;;;5.25;94.29;97412.20;1632509;87;25708;-69
2022/12/24 00:49:00;;;;;;;17.07;9.58;;;;;;;5.26;94.23;97408.91;1644433;87;25479;-69
2022/12/24 00:51:27;;;;;;;15.60;9.08;;;;;;;5.24;94.23;97402.43;1633009;87;29933;-69
2022/12/24 00:53:53;;;;;;;17.27;9.28;;;;;;;5.24;94.35;97406.50;1610993;87;26038;-69
2022/12/24 00:56:20;;;;;;;14.75;9.00;;;;;;;5.23;94.29;97415.77;1642127;85;25893;-69
2022/12/24 00:58:47;;;;;;;15.32;9.03;;;;;;;5.22;94.49;97418.25;1642452;85;25775;-70
2022/12/24 01:01:14;;;;;;;8.85;5.22;;;;;;;5.23;94.64;97420.39;1599268;87;25776;-70
2022/12/24 01:03:40;;;;;;;17.23;8.55;;;;;;;5.24;95.17;97430.17;1642396;85;27524;-70
2022/12/24 01:06:11;;;;;;;14.90;8.93;;;;;;;5.25;95.34;97429.86;1665895;85;25626;-70
2022/12/24 01:08:38;;;;;;;11.68;6.87;;;;;;;5.26;95.40;97425.21;1621431;87;25454;-71
2022/12/24 01:11:06;;;;;;;15.75;9.45;;;;;;;5.27;95.82;97433.63;1620159;87;25757;-71
2022/12/24 01:13:34;;;;;;;13.38;7.58;;;;;;;5.30;95.53;97416.71;1621260;87;25747;-70
2022/12/24 01:16:00;;;;;;;14.47;7.53;;;;;;;5.32;95.41;97429.98;1636135;85;26546;-71
2022/12/24 01:18:26;;;;;;;13.62;7.85;;;;;;;5.35;95.55;97431.51;1660611;85;25516;-71
2022/12/24 01:21:00;;;;;;;11.73;6.45;;;;;;;5.36;95.42;97426.89;1660214;85;25658;-71
2022/12/24 01:23:27;;;;;;;13.00;7.55;;;;;;;5.36;95.53;97427.67;1683037;85;25476;-70
2022/12/24 01:25:54;;;;;;;13.78;8.60;;;;;;;5.37;95.77;97436.09;1637664;85;25440;-69
2022/12/24 01:28:21;;;;;;;16.75;8.98;;;;;;;5.37;95.52;97433.37;1681508;85;27874;-69
2022/12/24 01:30:48;;;;;;;15.13;9.18;;;;;;;5.38;95.40;97434.16;1683109;85;25442;-69
2022/12/24 01:33:15;;;;;;;13.30;8.15;;;;;;;5.39;95.37;97436.56;1683430;85;25435;-69
2022/12/24 01:35:42;;;;;;;14.33;8.88;;;;;;;5.44;95.37;97444.36;1637619;85;25669;-69
2022/12/24 01:38:10;;;;;;;11.33;6.60;;;;;;;5.48;95.45;97429.03;1683183;85;25692;-69
2022/12/24 01:43:27;;;;;;;15.68;8.03;;;;;;;5.48;95.41;97420.34;1670011;85;25635;-68
2022/12/24 01:46:04;;;;;;;15.05;9.15;;;;;;;5.49;95.37;97406.98;1660361;85;25613;-68
2022/12/24 01:48:47;;;;;;;12.55;7.00;;;;;;;5.50;95.29;97405.86;1659607;85;26710;-68
2022/12/24 01:51:22;;;;;;;11.22;7.05;;;;;;;5.49;95.44;97394.75;1683408;85;25660;-67
2022/12/24 01:53:52;;;;;;;11.35;6.37;;;;;;;5.49;95.52;97402.09;1687246;84;26860;-67
2022/12/24 01:56:20;;;;;;;9.03;6.12;;;;;;;5.45;95.66;97399.77;1688113;84;25687;-67
2022/12/24 01:58:51;;;;;;;7.85;4.97;;;;;;;5.42;95.77;97397.13;1643984;85;25685;-67
2022/12/24 02:01:17;;;;;;;10.32;6.00;;;;;;;5.40;95.92;97399.34;1688579;84;25759;-67
2022/12/24 02:03:43;;;;;;;10.63;6.22;;;;;;;5.41;96.01;97406.36;1631950;85;25773;-67
2022/12/24 02:06:14;;;;;;;11.10;6.17;;;;;;;5.43;96.02;97401.98;1608746;87;28461;-66
2022/12/24 02:08:39;;;;;;;7.12;4.92;;;;;;;5.46;95.93;97402.72;1631481;87;25942;-66
2022/12/24 02:11:16;;;;;;;10.88;5.40;;;;;;;5.43;96.09;97409.58;1632864;87;25779;-66
2022/12/24 02:13:50;;;;;;;10.10;5.20;;;;;;;5.46;96.00;97416.30;1654070;86;25563;-66
2022/12/24 02:16:50;;;;;;;12.07;6.22;;;;;;;5.48;96.22;97418.16;1665197;84;25631;-66
2022/12/24 02:19:41;;;;;;;7.05;4.58;;;;;;;5.51;96.16;97414.83;1645923;86;27661;-66
2022/12/24 02:22:46;;;;;;;7.42;5.00;;;;;;;5.55;96.17;97419.09;1679781;85;25513;-66
2022/12/24 02:25:57;;;;;;;9.53;5.17;;;;;;;5.56;96.24;97413.89;1632665;87;25514;-66
2022/12/24 02:28:30;;;;;;;;;;;;;;;5.60;96.29;97410.80;1635358;87;25899;-66
2022/12/24 02:31:21;;;;;;;12.28;6.03;;;;;;;5.63;96.30;97406.09;1654104;86;25597;-67
2022/12/24 02:33:56;;;;;;;22.45;9.90;;;;;;;5.65;96.57;97408.73;1657615;85;28104;-66
2022/12/24 02:36:33;;;;;;;18.15;9.43;;;;;;;5.68;96.48;97428.27;1684896;84;25658;-66
2022/12/24 02:39:10;;;;;;;14.23;8.28;;;;;;;5.64;96.00;97424.80;1688494;84;25582;-67
2022/12/24 02:44:40;;;;;;;9.95;5.80;;;;;;;5.64;96.59;97419.38;1667445;85;25514;-67
2022/12/24 02:47:09;;;;;;;15.00;8.03;;;;;;;5.65;96.57;97416.89;1688498;84;27594;-68
2022/12/24 02:49:36;;;;;;;10.45;6.65;;;;;;;5.64;96.25;97415.30;1666462;85;25804;-66
2022/12/24 02:52:03;;;;;;;12.58;7.47;;;;;;;5.63;96.42;97430.01;1689942;84;25758;-66
2022/12/24 02:54:29;;;;;;;11.22;6.85;;;;;;;5.62;96.32;97428.38;1666137;85;25735;-66
2022/12/24 02:57:41;;;;;;;10.10;6.12;;;;;;;5.60;96.42;97438.78;1686481;85;25426;-67
2022/12/24 03:00:12;;;;;;;12.70;8.45;;;;;;;5.60;96.35;97444.22;1689588;84;28182;-66
2022/12/24 03:03:08;;;;;;;13.00;7.92;;;;;;;5.58;96.31;97453.23;1689888;84;25699;-67
2022/12/24 03:05:43;;;;;;;13.03;7.42;;;;;;;5.55;96.16;97447.05;1666481;85;25511;-68
2022/12/24 03:08:17;;;;;;;12.25;7.65;;;;;;;5.56;96.36;97445.96;1666588;85;25566;-67
2022/12/24 03:10:54;;;;;;;15.13;9.30;;;;;;;5.56;96.53;97445.96;1686026;84;25662;-68
2022/12/24 03:13:23;;;;;;;11.20;7.80;;;;;;;5.56;96.34;97451.39;1686469;85;27442;-67
2022/12/24 03:15:49;;;;;;;10.25;7.25;;;;;;;5.56;96.39;97445.14;1686277;84;25429;-67
2022/12/24 03:18:20;;;;;;;7.92;6.05;;;;;;;5.57;96.43;97450.27;1666521;84;25582;-67
2022/12/24 03:20:50;;;;;;;;;;;;;;;5.57;96.31;97463.86;1689101;84;25675;-67
2022/12/24 03:23:16;;;;;;;12.55;8.45;;;;;;;5.58;96.44;97451.87;1666655;85;25524;-67
2022/12/24 03:25:44;;;;;;;11.97;7.72;;;;;;;5.58;96.46;97467.39;1666727;85;27334;-67
2022/12/24 03:28:14;;;;;;;9.60;6.00;;;;;;;5.58;96.37;97467.39;1666384;85;25737;-69
2022/12/24 03:30:43;;;;;;;10.53;7.58;;;;;;;5.57;96.35;97475.28;1685685;85;25484;-67
2022/12/24 03:33:12;;;;;;;12.15;8.15;;;;;;;5.52;96.08;97464.79;1644075;85;25770;-68
2022/12/24 03:35:39;;;;;;;16.23;9.38;;;;;;;5.53;96.12;97471.03;1666722;85;25762;-68
2022/12/24 03:38:05;;;;;;;12.03;7.05;;;;;;;5.52;96.16;97474.30;1666579;85;27491;-68
2022/12/24 03:40:32;;;;;;;13.20;9.33;;;;;;;5.52;96.12;97476.20;1666688;85;25721;-68
2022/12/24 03:42:58;;;;;;;12.80;8.93;;;;;;;5.49;96.06;97480.90;1666642;85;25620;-68
2022/12/24 03:45:24;;;;;;;13.20;8.15;;;;;;;5.46;96.12;97480.16;1666559;85;25764;-67
2022/12/24 03:47:50;;;;;;;14.47;9.18;;;;;;;5.39;96.33;97478.67;1689309;84;25641;-68
2022/12/24 03:50:17;;;;;;;14.43;9.00;;;;;;;5.39;96.46;97480.61;1690228;84;27376;-68
2022/12/24 03:52:43;;;;;;;16.93;9.88;;;;;;;5.34;96.42;97472.56;1689576;84;25710;-68
2022/12/24 03:55:09;;;;;;;13.95;8.48;;;;;;;5.34;96.39;97476.64;1665507;85;25452;-67
2022/12/24 03:57:35;;;;;;;13.78;9.03;;;;;;;5.35;96.73;97479.59;1666612;85;26255;-68
2022/12/24 04:00:04;;;;;;;14.35;8.90;;;;;;;5.32;96.60;97475.59;1689875;84;25445;-68
2022/12/24 04:02:30;;;;;;;17.62;10.23;;;;;;;5.34;96.60;97470.66;1644043;85;27267;-67
2022/12/24 04:04:57;;;;;;;13.20;8.43;;;;;;;5.36;96.68;97482.00;1645036;86;25491;-67
2022/12/24 04:07:23;;;;;;;13.10;9.40;;;;;;;5.38;96.96;97474.91;1646348;85;25762;-68
2022/12/24 04:09:49;;;;;;;14.43;9.15;;;;;;;5.39;97.26;97476.53;1631703;87;26471;-68
2022/12/24 04:12:15;;;;;;;13.60;8.98;;;;;;;5.46;96.99;97484.23;1610282;87;25678;-67
2022/12/24 04:14:41;;;;;;;16.32;9.65;;;;;;;5.48;96.93;97482.02;1632671;87;27414;-68
2022/12/24 04:17:07;;;;;;;14.58;9.85;;;;;;;5.52;96.78;97487.08;1655755;85;25778;-69
2022/12/24 04:19:34;;;;;;;12.85;9.00;;;;;;;5.52;96.75;97490.61;1687986;84;25520;-69
2022/12/24 04:22:00;;;;;;;12.28;8.58;;;;;;;5.55;96.63;97495.19;1666440;85;25780;-69
2022/12/24 04:24:26;;;;;;;12.73;8.98;;;;;;;5.53;96.51;97497.63;1688029;84;25602;-68
2022/12/24 04:26:53;;;;;;;12.00;8.55;;;;;;;5.56;96.35;97495.42;1664854;85;27353;-70
2022/12/24 04:29:19;;;;;;;10.72;7.47;;;;;;;5.57;96.63;97497.83;1689377;84;25604;-68
2022/12/24 04:31:46;;;;;;;14.13;9.58;;;;;;;5.59;96.63;97496.16;1642635;85;25691;-68
2022/12/24 04:34:13;;;;;;;13.60;9.03;;;;;;;5.58;96.28;97495.35;1643661;85;25733;-69
2022/12/24 04:36:40;;;;;;;11.97;8.63;;;;;;;5.57;96.05;97497.02;1688239;85;25559;-69
2022/12/24 04:39:06;;;;;;;14.00;9.40;;;;;;;5.56;96.18;97500.86;1642205;85;28242;-69
2022/12/24 04:41:32;;;;;;;17.40;11.25;;;;;;;5.56;96.10;97503.03;1688324;85;25523;-68
2022/12/24 04:43:59;;;;;;;16.60;10.72;;;;;;;5.55;96.26;97497.33;1666876;85;25603;-68
2022/12/24 04:46:31;;;;;;;15.18;9.38;;;;;;;5.56;96.21;97497.59;1666476;85;25724;-68
2022/12/24 04:48:58;;;;;;;14.93;9.05;;;;;;;5.55;96.05;97504.70;1644173;85;25678;-68
2022/12/24 04:51:26;;;;;;;13.13;8.53;;;;;;;5.52;95.96;97509.63;1688087;85;29465;-68
2022/12/24 04:53:52;;;;;;;13.80;8.58;;;;;;;5.46;95.94;97513.58;1615472;85;25853;-68
2022/12/24 04:56:23;;;;;;;12.93;7.33;;;;;;;5.43;96.33;97506.58;1610246;87;25712;-69
2022/12/24 04:58:50;;;;;;;9.58;6.75;;;;;;;5.41;96.46;97506.89;1632841;87;25728;-69
2022/12/24 05:01:23;;;;;;;14.50;9.83;;;;;;;5.38;96.76;97512.39;1610555;87;25197;-68
2022/12/24 05:03:50;;;;;;;14.28;9.43;;;;;;;5.38;96.85;97515.11;1632325;85;27610;-70
2022/12/24 05:06:20;;;;;;;14.13;9.63;;;;;;;5.38;96.84;97519.73;1660496;86;26085;-69
2022/12/24 05:08:47;;;;;;;15.20;9.13;;;;;;;5.37;96.68;97510.80;1640127;86;25558;-68
2022/12/24 05:11:14;;;;;;;11.75;7.55;;;;;;;5.39;97.30;97507.77;1657183;85;26477;-69
2022/12/24 05:13:48;;;;;;;15.15;8.88;;;;;;;5.40;97.47;97520.23;1666417;85;25652;-69
2022/12/24 05:16:17;;;;;;;16.52;8.98;;;;;;;5.43;97.35;97520.17;1666140;85;28186;-69
2022/12/24 05:18:43;;;;;;;17.17;9.55;;;;;;;5.46;97.54;97525.80;1666381;85;25736;-69
2022/12/24 05:21:12;;;;;;;17.17;9.93;;;;;;;5.51;97.69;97524.34;1666335;85;25708;-69
2022/12/24 05:26:50;;;;;;;22.65;12.13;;;;;;;5.59;97.62;97526.06;1688123;85;25401;-70
2022/12/24 05:29:18;;;;;;;22.22;11.03;;;;;;;5.61;97.54;97525.98;1648822;86;27435;-70
2022/12/24 05:31:52;;;;;;;28.15;13.90;;;;;;;5.63;97.47;97518.88;1632349;87;25759;-71
2022/12/24 05:34:23;;;;;;;21.07;10.63;;;;;;;5.65;97.15;97524.25;1631544;87;25470;-70
2022/12/24 05:36:52;;;;;;;;;;;;;;;5.65;97.19;97522.11;1635611;85;25660;-71
2022/12/24 05:39:24;;;;;;;22.77;11.12;;;;;;;5.64;97.04;97525.38;1610655;87;25470;-70
2022/12/24 05:41:51;;;;;;;28.25;13.20;;;;;;;5.64;97.28;97532.72;1631696;85;27415;-71
2022/12/24 05:44:20;;;;;;;16.37;8.78;;;;;;;5.64;97.30;97525.38;1624401;85;25904;-71
2022/12/24 05:46:50;;;;;;;18.73;9.08;;;;;;;5.63;97.36;97526.49;1635621;86;25864;-71
2022/12/24 05:49:18;;;;;;;17.67;9.00;;;;;;;5.64;97.10;97529.45;1630539;86;25776;-71
2022/12/24 05:51:53;;;;;;;29.87;12.68;;;;;;;5.63;97.03;97531.93;1653895;86;25648;-71
2022/12/24 05:54:19;;;;;;;11.15;5.25;;;;;;;5.63;97.00;97529.76;1648965;85;27373;-70
2022/12/24 05:56:45;;;;;;;27.60;13.60;;;;;;;5.61;97.29;97533.33;1634835;86;25775;-70
2022/12/24 05:59:12;;;;;;;14.58;7.85;;;;;;;5.61;97.22;97538.22;1655321;85;25611;-70
2022/12/24 06:01:38;;;;;;;24.55;12.18;;;;;;;5.61;97.25;97541.48;1645791;87;25812;-71
2022/12/24 06:04:04;;;;;;;14.35;7.65;;;;;;;5.64;97.34;97548.48;1665904;84;25778;-71
2022/12/24 06:06:30;;;;;;;20.08;10.38;;;;;;;5.64;97.69;97550.38;1661916;86;27609;-71
2022/12/24 06:08:56;;;;;;;16.82;8.90;;;;;;;5.69;97.47;97546.19;1639283;86;25769;-71
2022/12/24 06:11:26;;;;;;;20.43;9.83;;;;;;;5.72;97.51;97554.28;1685232;84;25444;-71
2022/12/24 06:13:53;;;;;;;14.30;7.70;;;;;;;5.73;97.39;97551.25;1639709;86;25696;-71
2022/12/24 06:16:21;;;;;;;16.80;9.38;;;;;;;5.73;97.35;97566.20;1639465;86;25787;-71
2022/12/24 06:18:47;;;;;;;21.90;10.93;;;;;;;5.72;97.38;97561.07;1660807;85;28312;-71
2022/12/24 06:21:14;;;;;;;21.48;11.22;;;;;;;5.73;97.37;97557.27;1632751;86;25870;-71
2022/12/24 06:23:43;;;;;;;25.08;12.18;;;;;;;5.72;96.90;97563.25;1587917;87;25775;-70
2022/12/24 06:26:13;;;;;;;17.92;9.30;;;;;;;5.72;96.97;97571.41;1653836;86;25896;-71
2022/12/24 06:28:39;;;;;;;23.67;12.13;;;;;;;5.71;97.09;97568.45;1646114;86;25447;-72
2022/12/24 06:31:10;;;;;;;23.07;11.33;;;;;;;5.70;96.92;97574.97;1619647;85;28901;-71
2022/12/24 06:33:36;;;;;;;26.07;12.73;;;;;;;5.71;97.02;97574.42;1689943;84;25666;-71
2022/12/24 06:36:16;;;;;;;19.50;9.68;;;;;;;5.69;97.02;97585.61;1666314;85;25783;-71
2022/12/24 06:38:43;;;;;;;24.80;12.10;;;;;;;5.67;97.17;97583.74;1665849;85;27315;-71
2022/12/24 06:41:09;;;;;;;28.60;14.38;;;;;;;5.68;96.95;97589.99;1638484;85;25645;-72
2022/12/24 06:43:35;;;;;;;19.65;10.98;;;;;;;5.68;96.90;97592.16;1654014;86;27439;-72
2022/12/24 06:46:02;;;;;;;17.23;8.95;;;;;;;5.69;96.79;97595.67;1632635;87;25655;-72
2022/12/24 06:48:29;;;;;;;25.77;14.38;;;;;;;5.68;96.89;97608.48;1631641;87;25647;-72
2022/12/24 06:50:55;;;;;;;23.87;13.40;;;;;;;5.70;96.74;97598.66;1632877;87;25634;-72
2022/12/24 06:53:22;;;;;;;16.90;9.13;;;;;;;5.70;96.63;97601.38;1644301;84;25712;-72
2022/12/24 06:55:48;;;;;;;16.05;8.65;;;;;;;5.68;96.81;97594.07;1666064;85;27441;-72
2022/12/24 06:58:14;;;;;;;16.37;9.58;;;;;;;5.70;96.95;97605.45;1661880;86;25471;-71
2022/12/24 07:00:40;;;;;;;17.48;11.28;;;;;;;5.71;96.91;97611.12;1662057;86;25542;-73
2022/12/24 07:03:07;;;;;;;18.57;10.95;;;;;;;5.72;96.88;97610.00;1616431;86;25548;-72
2022/12/24 07:05:33;;;;;;;25.95;15.43;;;;;;;5.72;96.94;97606.74;1635807;86;25786;-72
2022/12/24 07:07:59;;;;;;;15.18;9.38;;;;;;;5.74;96.92;97624.10;1667917;84;28265;-72
2022/12/24 07:10:25;;;;;;;25.30;13.20;;;;;;;5.76;96.86;97624.03;1655245;86;25482;-73
2022/12/24 07:12:52;;;;;;;23.87;12.43;;;;;;;5.80;96.96;97635.11;1655276;86;25669;-73
2022/12/24 07:15:18;;;;;;;13.22;6.92;;;;;;;5.83;96.85;97625.52;1611041;87;25688;-72
2022/12/24 07:17:44;;;;;;;19.65;10.82;;;;;;;5.84;96.87;97630.66;1633071;87;25693;-72
2022/12/24 07:20:16;;;;;;;19.30;9.20;;;;;;;5.88;96.76;97634.94;1610245;87;28138;-72
2022/12/24 07:22:43;;;;;;;23.62;12.13;;;;;;;5.91;96.63;97632.96;1632614;87;25698;-71
2022/12/24 07:25:10;;;;;;;17.05;9.85;;;;;;;5.93;96.56;97630.72;1632882;87;25743;-72
2022/12/24 07:27:37;;;;;;;16.62;9.20;;;;;;;5.96;96.58;97643.70;1668693;84;25767;-71
2022/12/24 07:30:05;;;;;;;15.78;8.83;;;;;;;6.00;96.49;97645.26;1666638;85;25432;-71
2022/12/24 07:32:31;;;;;;;17.40;10.48;;;;;;;6.02;96.44;97643.83;1684058;84;27442;-71
2022/12/24 07:34:57;;;;;;;18.75;11.03;;;;;;;6.08;96.46;97655.44;1641612;85;25773;-71
2022/12/24 07:37:24;;;;;;;39.98;20.08;;;;;;;6.12;96.26;97658.33;1643977;85;25865;-70
2022/12/24 07:39:50;;;;;;;19.23;11.95;;;;;;;6.15;96.19;97645.47;1647537;86;25829;-70
2022/12/24 07:42:16;;;;;;;20.10;11.75;;;;;;;6.20;96.21;97651.34;1616159;86;25625;-70
2022/12/24 07:44:43;;;;;;;18.90;11.63;;;;;;;6.26;96.13;97651.47;1637952;86;28142;-70
2022/12/24 07:47:09;;;;;;;18.60;10.80;;;;;;;6.30;95.99;97656.53;1616103;86;25828;-70
2022/12/24 07:49:35;;;;;;;16.15;9.15;;;;;;;6.34;95.79;97649.92;1638127;86;25503;-70
2022/12/24 07:52:02;;;;;;;19.05;10.58;;;;;;;6.37;95.58;97658.28;1656991;86;25712;-70
2022/12/24 07:54:29;;;;;;;18.00;9.80;;;;;;;6.36;95.37;97652.57;1617365;85;25673;-70
2022/12/24 07:56:55;;;;;;;20.00;11.68;;;;;;;6.38;95.36;97659.06;1662111;86;27561;-70
2022/12/24 07:59:21;;;;;;;18.73;11.28;;;;;;;6.38;95.20;97655.80;1655899;85;25893;-71
2022/12/24 08:01:48;;;;;;;18.42;10.50;;;;;;;6.38;95.08;97651.71;1641978;86;25602;-71
2022/12/24 08:04:14;;;;;;;16.57;8.85;;;;;;;6.42;95.13;97663.34;1654132;86;25847;-71
2022/12/24 08:06:40;;;;;;;19.10;10.23;;;;;;;6.40;94.78;97660.35;1632884;85;25520;-70
2022/12/24 08:09:06;;;;;;;18.77;8.75;;;;;;;6.40;94.75;97669.88;1652045;86;28266;-71
2022/12/24 08:11:33;;;;;;;16.23;9.15;;;;;;;6.40;94.68;97671.81;1655204;86;25724;-71
2022/12/24 08:13:59;;;;;;;16.62;10.15;;;;;;;6.42;94.72;97668.20;1631779;85;25678;-71
2022/12/24 08:16:25;;;;;;;17.27;9.95;;;;;;;6.41;94.63;97670.69;1666667;85;25689;-71
2022/12/24 08:18:51;;;;;;;17.52;10.00;;;;;;;6.44;94.43;97675.52;1690023;84;25822;-71
2022/12/24 08:21:17;;;;;;;20.70;10.53;;;;;;;6.45;94.48;97670.30;1690152;84;28026;-70
2022/12/24 08:23:46;;;;;;;21.20;11.00;;;;;;;6.46;94.38;97674.66;1661552;86;25815;-70
2022/12/24 08:26:13;;;;;;;21.17;10.70;;;;;;;6.46;94.44;97680.09;1615420;85;25693;-71
2022/12/24 08:28:39;;;;;;;19.80;8.98;;;;;;;6.49;94.66;97689.55;1644010;85;25598;-71
2022/12/24 08:31:06;;;;;;;15.88;9.58;;;;;;;6.55;94.75;97695.11;1689837;84;25464;-71
2022/12/24 08:33:33;;;;;;;17.07;8.98;;;;;;;6.62;94.49;97705.58;1714052;83;27312;-70
2022/12/24 08:36:01;;;;;;;15.28;8.70;;;;;;;6.68;93.96;97707.03;1713653;83;25830;-71
2022/12/24 08:38:28;;;;;;;15.72;8.25;;;;;;;6.68;93.60;97712.48;1714007;83;25699;-71
2022/12/24 08:40:54;;;;;;;16.48;9.55;;;;;;;6.69;93.44;97718.73;1694696;83;25836;-70
2022/12/24 08:43:21;;;;;;;12.78;7.08;;;;;;;6.71;93.39;97721.96;1714007;83;25499;-71
2022/12/24 08:45:49;;;;;;;13.70;7.40;;;;;;;6.82;94.12;97723.87;1666507;85;28147;-71
2022/12/24 08:48:15;;;;;;;15.23;8.35;;;;;;;7.06;94.21;97729.50;1644013;85;25744;-71
2022/12/24 08:50:42;;;;;;;12.68;7.40;;;;;;;7.31;93.31;97728.58;1686371;85;25666;-70
2022/12/24 08:53:10;;;;;;;10.40;6.22;;;;;;;7.43;91.97;97731.51;1689856;84;25716;-71
2022/12/24 08:55:37;;;;;;;10.43;5.92;;;;;;;7.45;91.26;97740.16;1666613;85;25741;-71
2022/12/24 08:58:03;;;;;;;14.40;8.95;;;;;;;7.43;90.85;97738.88;1688297;85;27392;-71
2022/12/24 09:00:31;;;;;;;11.63;6.15;;;;;;;7.38;90.79;97754.81;1662550;85;25469;-71
2022/12/24 09:02:57;;;;;;;12.13;7.15;;;;;;;7.31;90.78;97752.53;1670772;84;25803;-71
2022/12/24 09:05:24;;;;;;;12.10;7.97;;;;;;;7.30;91.14;97753.66;1660541;86;25708;-72
2022/12/24 09:07:51;;;;;;;10.65;6.35;;;;;;;7.32;91.35;97754.70;1639438;86;25778;-71
2022/12/24 09:10:17;;;;;;;9.50;6.33;;;;;;;7.32;91.25;97748.70;1639540;86;27366;-71
2022/12/24 09:12:43;;;;;;;11.05;6.72;;;;;;;7.39;91.45;97751.77;1639100;86;25506;-72
2022/12/24 09:15:10;;;;;;;10.18;6.33;;;;;;;7.43;91.03;97751.95;1639603;86;25571;-72
2022/12/24 09:17:36;;;;;;;12.63;5.65;;;;;;;7.48;90.85;97764.06;1660457;86;26327;-72
2022/12/24 09:20:05;;;;;;;13.13;7.42;;;;;;;7.50;90.26;97761.02;1639219;86;25686;-72
2022/12/24 09:22:35;;;;;;;13.78;7.80;;;;;;;7.52;90.55;97759.58;1662041;84;27188;-72
2022/12/24 09:25:03;;;;;;;13.58;7.37;;;;;;;7.53;90.62;97752.21;1660303;86;25477;-72
2022/12/24 09:27:30;;;;;;;11.38;5.70;;;;;;;7.56;90.52;97765.22;1661653;86;25520;-72
2022/12/24 09:29:57;;;;;;;14.40;6.75;;;;;;;7.67;90.66;97767.09;1661889;86;25783;-72
2022/12/24 09:32:24;;;;;;;14.60;7.90;;;;;;;7.85;90.52;97773.95;1660568;86;25567;-72
2022/12/24 09:34:50;;;;;;;60.80;26.25;;;;;;;8.03;90.76;97773.41;1661776;86;27925;-72
2022/12/24 09:37:16;;;;;;;69.58;37.98;;;;;;;8.16;89.55;97778.50;1617621;86;25806;-72
2022/12/24 09:39:42;;;;;;;122.70;49.30;;;;;;;8.24;89.19;97787.27;1617409;86;25750;-72
2022/12/24 09:42:37;;;;;;;269.48;90.35;;;;;;;8.23;88.73;97784.86;1617617;86;25892;-73
2022/12/24 09:45:29;;;;;;;375.15;116.03;;;;;;;8.16;89.19;97789.42;1635113;86;25473;-73
2022/12/24 09:48:03;;;;;;;222.98;55.20;;;;;;;8.02;89.45;97789.55;1660449;86;27548;-73
2022/12/24 09:50:56;;;;;;;136.43;35.52;;;;;;;7.87;89.56;97791.63;1653701;86;25478;-73
2022/12/24 09:53:30;;;;;;;119.40;30.08;;;;;;;7.89;90.84;97783.13;1635650;86;25739;-73
2022/12/24 09:56:01;;;;;;;104.70;29.35;;;;;;;8.02;91.00;97793.65;1659540;86;25739;-76
2022/12/24 09:58:38;;;;;;;166.43;38.92;;;;;;;8.10;90.76;97792.88;1640222;86;25793;-74
2022/12/24 10:01:10;;;;;;;162.90;40.90;;;;;;;8.15;90.56;97795.43;1618020;86;27272;-74
2022/12/24 10:03:46;;;;;;;92.25;24.50;;;;;;;8.16;90.19;97795.69;1618576;86;25685;-74
2022/12/24 10:06:34;;;;;;;121.77;29.48;;;;;;;8.17;90.32;97793.75;1660354;86;25602;-72
2022/12/24 10:09:51;;;;;;;93.52;25.60;;;;;;;8.18;90.52;97804.11;1655878;86;25682;-72
2022/12/24 10:12:55;;;;;;;108.55;28.52;;;;;;;8.14;90.51;97802.02;1660506;86;25677;-72
2022/12/24 10:15:39;;;;;;;141.68;35.45;;;;;;;8.11;90.49;97804.57;1639132;86;27362;-70
2022/12/24 10:18:26;;;;;;;85.17;23.77;;;;;;;8.07;90.76;97811.80;1660289;86;25703;-71
2022/12/24 10:21:17;;;;;;;95.92;25.97;;;;;;;8.07;90.86;97818.06;1634900;86;25754;-71
2022/12/24 10:23:55;;;;;;;50.92;16.45;;;;;;;8.07;90.99;97816.70;1638999;86;25623;-72
2022/12/24 10:26:41;;;;;;;82.90;23.87;;;;;;;8.12;91.21;97822.57;1635187;86;25698;-72
2022/12/24 10:29:36;;;;;;;83.97;24.52;;;;;;;8.21;91.53;97823.95;1660681;86;27446;-71
2022/12/24 10:32:15;;;;;;;73.60;23.73;;;;;;;8.31;91.64;97827.73;1639455;86;25802;-71
2022/12/24 10:34:46;;;;;;;68.33;20.72;;;;;;;8.41;91.43;97835.60;1659730;86;25630;-73
2022/12/24 10:37:20;;;;;;;37.53;14.38;;;;;;;8.49;90.92;97844.93;1638668;86;26378;-73
2022/12/24 10:39:46;;;;;;;35.13;13.08;;;;;;;8.48;90.87;97850.70;1639860;86;25670;-72
2022/12/24 10:42:14;;;;;;;48.87;17.02;;;;;;;8.55;91.12;97859.25;1617992;86;27513;-72
2022/12/24 10:44:41;;;;;;;114.57;33.18;;;;;;;8.59;91.00;97858.06;1639252;86;25696;-72
2022/12/24 10:47:09;;;;;;;79.30;26.62;;;;;;;8.62;90.88;97859.60;1639462;85;25657;-72
2022/12/24 10:49:50;;;;;;;54.95;19.17;;;;;;;8.62;90.49;97865.06;1674290;84;25837;-72
2022/12/24 10:52:21;;;;;;;75.08;23.65;;;;;;;8.61;90.29;97862.66;1634109;85;25687;-72
2022/12/24 10:55:10;;;;;;;;;;;;;;;8.60;90.15;97874.68;1641904;85;27376;-73
2022/12/24 10:57:38;;;;;;;25.27;10.93;;;;;;;8.60;90.48;97869.22;1684000;85;25815;-73
2022/12/24 11:00:09;;;;;;;52.27;18.60;;;;;;;8.53;89.82;97877.30;1687234;84;25631;-73
2022/12/24 11:02:38;;;;;;;62.27;19.40;;;;;;;8.55;90.21;97882.47;1632760;85;25703;-73
2022/12/24 11:05:28;;;;;;;37.00;14.43;;;;;;;8.61;90.17;97879.04;1630719;86;25624;-74
2022/12/24 11:08:19;;;;;;;41.00;15.18;;;;;;;8.71;90.44;97888.83;1653839;86;27312;-73
2022/12/24 11:10:58;;;;;;;64.55;20.20;;;;;;;8.80;89.99;97882.03;1633165;87;25536;-73
2022/12/24 11:13:44;;;;;;;71.82;21.73;;;;;;;8.87;90.02;97889.17;1679184;84;25506;-73
2022/12/24 11:16:30;;;;;;;51.02;17.02;;;;;;;8.94;89.19;97884.58;1688390;84;25784;-72
2022/12/24 11:19:01;;;;;;;50.45;17.27;;;;;;;8.98;89.03;97893.76;1660041;85;25454;-72
2022/12/24 11:21:31;;;;;;;43.30;15.90;;;;;;;8.99;88.79;97894.80;1654156;86;27391;-72
2022/12/24 11:24:15;;;;;;;50.67;17.07;;;;;;;9.03;88.95;97900.41;1646111;86;25664;-71
2022/12/24 11:26:43;;;;;;;75.80;25.10;;;;;;;9.07;88.72;97906.05;1637286;86;25495;-72
2022/12/24 11:29:21;;;;;;;79.65;25.25;;;;;;;9.08;88.77;97905.73;1634950;86;25653;-72
2022/12/24 11:31:51;;;;;;;29.10;12.18;;;;;;;9.11;88.88;97913.28;1635208;86;25694;-72
2022/12/24 11:34:34;;;;;;;40.12;15.53;;;;;;;9.15;87.83;97914.79;1639847;86;28246;-71
2022/12/24 11:37:11;;;;;;;37.13;14.90;;;;;;;9.18;88.06;97924.30;1643962;85;25673;-71
2022/12/24 11:39:46;;;;;;;21.20;9.75;;;;;;;9.21;87.80;97927.17;1687051;84;25500;-71
2022/12/24 11:42:37;;;;;;;66.67;22.73;;;;;;;9.22;87.25;97927.98;1682290;84;25979;-71
2022/12/24 11:45:09;;;;;;;49.65;18.57;;;;;;;9.20;87.83;97943.89;1673223;85;25667;-71
2022/12/24 11:47:39;;;;;;;44.98;17.17;;;;;;;9.23;87.79;97936.41;1685523;84;27475;-71
2022/12/24 11:50:28;;;;;;;25.00;9.50;;;;;;;9.19;86.67;97939.01;1638616;86;26544;-71
2022/12/24 11:53:03;;;;;;;12.63;6.50;;;;;;;9.18;86.99;97939.33;1613687;85;25517;-70
2022/12/24 11:55:54;;;;;;;13.75;6.40;;;;;;;9.15;86.41;97945.67;1665991;85;25648;-71